In Rescue
 
Open Full Screen Window  High Contrast Mode
Wind Gusting 00 knots
04
July 23, 2019 1:09 AM EDT
Weather Information
Wind Direction
  340 °
Wind Speed
  04 kt (5 mph)
Wind Gust
  00 kt (0 mph)
Altimeter
29.99 in
Visibility
10 SM
Temperature
17° C
63° F
Dewpoint
12° C
54° F
Humidity
73%
1hr Rain Fall
00.00 in.
24hr Rain Fall
00.00 in.
Sky Condition
Clear
VFR

METAR KONZ 230509Z AUTO 34004KT 10SM CLR 17/12 A2999 RMK AO2 T01670115

FAA Disclaimer: The data displayed is for advisory purposes only and is not to be used for flight planning or operations.